Time;durP1;ratioP1;P1;durP2;ratioP2;P2;SDS_P1;SDS_P2;PMS_P1;PMS_P2;Temp;Humidity;BMP_temperature;BMP_pressure;BME280_temperature;BME280_humidity;BME280_pressure;Samples;Min_cycle;Max_cycle;Signal;HPM_P1;HPM_P2
2023/12/24 00:00:23;;;;;;;0.70;0.70;;;8.20;76.30;;;;;;4952083;28;20215;-89
2023/12/24 00:02:52;;;;;;;8.10;0.90;;;8.20;76.40;;;;;;4956470;28;20238;-86
2023/12/24 00:05:22;;;;;;;1.27;1.00;;;8.20;76.40;;;;;;4953958;28;20237;-84
2023/12/24 00:07:51;;;;;;;0.50;0.50;;;8.20;76.30;;;;;;4956776;28;20545;-85
2023/12/24 00:10:20;;;;;;;2.77;1.03;;;8.20;76.30;;;;;;4957910;28;20280;-85
2023/12/24 00:12:50;;;;;;;0.53;0.53;;;8.20;76.40;;;;;;4954948;28;20238;-87
2023/12/24 00:15:19;;;;;;;0.60;0.60;;;8.20;76.40;;;;;;4952685;28;20212;-86
2023/12/24 00:17:47;;;;;;;0.63;0.63;;;8.20;76.60;;;;;;4959261;28;20241;-88
2023/12/24 00:20:16;;;;;;;0.50;0.50;;;8.20;76.70;;;;;;4957700;28;20198;-87
2023/12/24 00:23:03;;;;;;;0.90;0.90;;;8.10;76.60;;;;;;4959952;28;20199;-85
2023/12/24 00:25:32;;;;;;;4.03;1.90;;;8.10;76.90;;;;;;4959115;28;20243;-83
2023/12/24 00:28:04;;;;;;;0.47;0.47;;;8.10;76.90;;;;;;4954524;28;20212;-82
2023/12/24 00:30:35;;;;;;;0.40;0.40;;;8.10;77.00;;;;;;4953548;28;20225;-84
2023/12/24 00:33:04;;;;;;;1.23;1.13;;;8.10;77.20;;;;;;4950107;28;20203;-86
2023/12/24 00:35:34;;;;;;;0.50;0.50;;;8.10;77.20;;;;;;4960440;28;20203;-85
2023/12/24 00:38:03;;;;;;;0.67;0.67;;;8.10;77.40;;;;;;4949927;28;20226;-86
2023/12/24 00:40:32;;;;;;;0.70;0.70;;;8.10;77.50;;;;;;4958872;28;20210;-85
2023/12/24 00:43:02;;;;;;;0.43;0.43;;;8.10;77.60;;;;;;4958077;28;20202;-85
2023/12/24 00:45:31;;;;;;;0.60;0.60;;;8.10;77.70;;;;;;4959262;28;20208;-87
2023/12/24 00:47:59;;;;;;;0.97;0.97;;;8.00;77.80;;;;;;4957450;28;20198;-85
2023/12/24 00:50:27;;;;;;;0.63;0.63;;;8.00;78.00;;;;;;4958460;28;20199;-85
2023/12/24 00:52:56;;;;;;;0.87;0.77;;;7.90;78.30;;;;;;4962072;28;20218;-83
2023/12/24 00:55:25;;;;;;;1.03;0.90;;;7.90;78.70;;;;;;4963829;28;20199;-85
2023/12/24 00:57:54;;;;;;;0.80;0.80;;;7.80;78.70;;;;;;4956120;28;20241;-85
2023/12/24 01:00:24;;;;;;;0.70;0.70;;;7.80;78.80;;;;;;4953279;28;20214;-85
2023/12/24 01:02:53;;;;;;;0.60;0.60;;;7.80;78.70;;;;;;4949378;28;20313;-83
2023/12/24 01:05:22;;;;;;;0.57;0.57;;;7.80;79.10;;;;;;4949162;28;20933;-83
2023/12/24 01:07:50;;;;;;;0.83;0.83;;;7.70;78.90;;;;;;4946698;28;20203;-84
2023/12/24 01:10:19;;;;;;;0.40;0.40;;;7.70;78.80;;;;;;4951125;28;20214;-85
2023/12/24 01:12:48;;;;;;;0.40;0.40;;;7.70;79.00;;;;;;4960462;28;20214;-84
2023/12/24 01:15:17;;;;;;;1.20;1.10;;;7.60;79.10;;;;;;4953209;28;20214;-83
2023/12/24 01:17:47;;;;;;;0.87;0.83;;;7.60;79.20;;;;;;4951674;28;20221;-84
2023/12/24 01:20:17;;;;;;;0.97;0.97;;;7.60;79.10;;;;;;4951126;28;20210;-85
2023/12/24 01:22:46;;;;;;;0.70;0.70;;;7.60;79.00;;;;;;4955501;28;20210;-84
2023/12/24 01:25:15;;;;;;;0.73;0.73;;;7.60;79.20;;;;;;4956051;28;21032;-84
2023/12/24 01:27:45;;;;;;;0.67;0.67;;;7.50;79.30;;;;;;4953808;28;20217;-84
2023/12/24 01:30:13;;;;;;;0.80;0.80;;;7.50;79.50;;;;;;4958738;28;20297;-83
2023/12/24 01:32:42;;;;;;;0.83;0.83;;;7.40;80.00;;;;;;4952799;28;20205;-82
2023/12/24 01:35:12;;;;;;;0.60;0.60;;;7.40;79.80;;;;;;4952374;28;20673;-83
2023/12/24 01:37:41;;;;;;;0.93;0.87;;;7.30;80.10;;;;;;4952475;28;20260;-85
2023/12/24 01:40:13;;;;;;;0.50;0.50;;;7.20;80.10;;;;;;4952182;28;20288;-84
2023/12/24 01:42:44;;;;;;;1.17;0.90;;;7.20;80.20;;;;;;4950722;28;20266;-85
2023/12/24 01:45:13;;;;;;;0.80;0.80;;;7.20;80.30;;;;;;4952961;28;20209;-84
2023/12/24 01:47:46;;;;;;;0.57;0.57;;;7.10;80.30;;;;;;4949915;28;20209;-83
2023/12/24 01:50:23;;;;;;;1.10;1.07;;;7.10;80.40;;;;;;4953518;28;20206;-82
2023/12/24 01:52:52;;;;;;;0.93;0.93;;;7.10;80.40;;;;;;4953922;28;20238;-83
2023/12/24 01:55:21;;;;;;;0.50;0.50;;;7.10;80.50;;;;;;4959646;28;20347;-85
2023/12/24 01:57:51;;;;;;;0.60;0.60;;;7.10;80.60;;;;;;4952662;28;20261;-83
2023/12/24 02:00:20;;;;;;;0.43;0.43;;;7.10;80.60;;;;;;4954207;28;20742;-83
2023/12/24 02:02:50;;;;;;;0.97;0.93;;;7.00;80.80;;;;;;4951229;28;20284;-83
2023/12/24 02:05:21;;;;;;;1.10;1.00;;;7.00;80.80;;;;;;4956507;28;20277;-83
2023/12/24 02:08:06;;;;;;;0.87;0.87;;;7.00;81.00;;;;;;4953439;28;20214;-83
2023/12/24 02:10:52;;;;;;;1.47;1.37;;;7.00;80.80;;;;;;4951021;28;20219;-84
2023/12/24 02:13:36;;;;;;;2.47;1.83;;;7.00;80.80;;;;;;4960066;28;20217;-85
2023/12/24 02:16:15;;;;;;;0.53;0.53;;;6.90;80.80;;;;;;4955049;28;20268;-85
2023/12/24 02:18:47;;;;;;;1.20;1.10;;;6.90;81.00;;;;;;4949100;28;20257;-86
2023/12/24 02:21:37;;;;;;;0.63;0.63;;;6.90;80.80;;;;;;4954214;28;20207;-83
2023/12/24 02:24:29;;;;;;;1.23;1.13;;;6.90;80.80;;;;;;4953128;28;20609;-85
2023/12/24 02:27:04;;;;;;;0.70;0.70;;;6.80;80.80;;;;;;4953472;28;20240;-85
2023/12/24 02:29:37;;;;;;;0.93;0.90;;;6.80;81.00;;;;;;4957776;28;20292;-85
2023/12/24 02:32:11;;;;;;;0.50;0.50;;;6.80;81.00;;;;;;4971181;28;20214;-84
2023/12/24 02:34:40;;;;;;;1.13;0.90;;;6.80;81.30;;;;;;4965966;28;20202;-84
2023/12/24 02:37:11;;;;;;;0.93;0.93;;;6.70;81.40;;;;;;4958564;28;20232;-85
2023/12/24 02:39:47;;;;;;;4.20;1.63;;;6.70;81.60;;;;;;4962824;28;20286;-87
2023/12/24 02:42:38;;;;;;;0.70;0.70;;;6.70;81.70;;;;;;4968159;28;20195;-84
2023/12/24 02:45:20;;;;;;;0.57;0.57;;;6.70;81.90;;;;;;4976880;28;20211;-83
2023/12/24 02:47:49;;;;;;;0.57;0.57;;;6.60;82.00;;;;;;4970617;28;20209;-85
2023/12/24 02:50:25;;;;;;;0.60;0.60;;;6.60;82.70;;;;;;4957159;28;20197;-83
2023/12/24 02:52:59;;;;;;;0.60;0.50;;;6.50;82.00;;;;;;4956681;28;20201;-84
2023/12/24 02:55:28;;;;;;;1.23;1.13;;;6.50;82.30;;;;;;4953489;28;20216;-84
2023/12/24 02:58:00;;;;;;;1.37;0.77;;;6.40;82.20;;;;;;4960094;28;20250;-83
2023/12/24 03:00:29;;;;;;;0.80;0.80;;;6.40;82.20;;;;;;4953900;28;20228;-85
2023/12/24 03:03:05;;;;;;;0.67;0.67;;;6.40;82.50;;;;;;4955399;28;20624;-84
2023/12/24 03:05:34;;;;;;;0.50;0.50;;;6.40;82.50;;;;;;4956797;28;20308;-85
2023/12/24 03:08:07;;;;;;;0.90;0.90;;;6.40;82.70;;;;;;4967325;28;20176;-87
2023/12/24 03:10:37;;;;;;;0.50;0.50;;;6.30;82.70;;;;;;4960670;28;20194;-83
2023/12/24 03:13:07;;;;;;;0.73;0.73;;;6.30;82.70;;;;;;4958489;28;20200;-83
2023/12/24 03:18:48;;;;;;;0.97;0.97;;;6.30;82.40;;;;;;4960804;28;20238;-84
2023/12/24 03:21:18;;;;;;;0.88;0.85;;;6.30;82.30;;;;;;4957148;28;20505;-84
2023/12/24 03:23:51;;;;;;;0.40;0.40;;;6.30;82.30;;;;;;4952116;28;20210;-84
2023/12/24 03:26:20;;;;;;;0.50;0.50;;;6.40;82.50;;;;;;4958025;28;20234;-84
2023/12/24 03:28:50;;;;;;;1.03;0.57;;;6.40;82.30;;;;;;4955640;28;20226;-84
2023/12/24 03:31:19;;;;;;;2.43;2.00;;;6.40;82.20;;;;;;4949381;28;20233;-82
2023/12/24 03:33:47;;;;;;;0.60;0.60;;;6.40;82.10;;;;;;4954431;28;20315;-83
2023/12/24 03:36:16;;;;;;;1.47;1.30;;;6.40;82.00;;;;;;4953961;28;20210;-86
2023/12/24 03:38:47;;;;;;;0.60;0.60;;;6.40;81.90;;;;;;4953320;28;20299;-85
2023/12/24 03:41:18;;;;;;;0.50;0.50;;;6.50;81.80;;;;;;4957430;28;20206;-84
2023/12/24 03:43:47;;;;;;;0.97;0.97;;;6.40;81.50;;;;;;4954182;28;20209;-83
2023/12/24 03:46:19;;;;;;;1.50;1.40;;;6.40;81.40;;;;;;4955606;28;20213;-84
2023/12/24 03:48:48;;;;;;;4.13;2.30;;;6.40;81.40;;;;;;4952844;28;20213;-83
2023/12/24 03:51:18;;;;;;;1.40;1.30;;;6.40;82.10;;;;;;4958719;28;20260;-84
2023/12/24 03:53:46;;;;;;;2.30;1.50;;;6.40;81.20;;;;;;4954281;28;20209;-84
2023/12/24 03:56:19;;;;;;;0.87;0.87;;;6.40;81.10;;;;;;4959218;28;20221;-84
2023/12/24 03:58:48;;;;;;;0.87;0.87;;;6.40;81.10;;;;;;4960601;28;20234;-85
2023/12/24 04:01:17;;;;;;;1.27;1.20;;;6.40;81.10;;;;;;4961314;28;20230;-85
2023/12/24 04:03:46;;;;;;;0.57;0.57;;;6.30;81.30;;;;;;4953579;28;20200;-84
2023/12/24 04:06:16;;;;;;;0.53;0.53;;;6.20;81.40;;;;;;4957083;28;20234;-85
2023/12/24 04:08:45;;;;;;;0.83;0.83;;;6.20;81.50;;;;;;4955971;28;20206;-85
2023/12/24 04:11:13;;;;;;;1.27;1.17;;;6.20;81.80;;;;;;4955180;28;20694;-84
2023/12/24 04:13:44;;;;;;;1.33;1.23;;;6.10;81.80;;;;;;4950146;28;20203;-84
2023/12/24 04:16:12;;;;;;;1.10;1.00;;;6.10;81.90;;;;;;4947693;28;20319;-83
2023/12/24 04:18:41;;;;;;;0.93;0.93;;;6.10;82.10;;;;;;4960577;28;20256;-84
2023/12/24 04:21:17;;;;;;;1.03;0.83;;;6.10;82.20;;;;;;4963598;28;20201;-85
2023/12/24 04:23:46;;;;;;;0.50;0.50;;;6.00;82.10;;;;;;4957836;28;20231;-84
2023/12/24 04:26:15;;;;;;;0.50;0.50;;;6.00;82.00;;;;;;4961960;28;20197;-84
2023/12/24 04:28:45;;;;;;;0.50;0.50;;;6.10;82.10;;;;;;4955687;28;20204;-85
2023/12/24 04:31:16;;;;;;;0.60;0.60;;;6.00;82.40;;;;;;4957524;28;20234;-84
2023/12/24 04:33:53;;;;;;;1.10;1.07;;;6.00;82.80;;;;;;4951162;28;20226;-85
2023/12/24 04:36:22;;;;;;;1.43;1.33;;;6.10;82.80;;;;;;4958521;28;20288;-82
2023/12/24 04:38:52;;;;;;;0.60;0.60;;;6.10;82.80;;;;;;4952462;28;20313;-83
2023/12/24 04:41:21;;;;;;;8.77;1.90;;;6.10;83.60;;;;;;4953202;28;20214;-83
2023/12/24 04:43:51;;;;;;;0.67;0.67;;;6.10;82.60;;;;;;4953472;28;20242;-84
2023/12/24 04:46:19;;;;;;;1.33;0.90;;;6.20;82.60;;;;;;4955654;28;20208;-83
2023/12/24 04:48:48;;;;;;;2.10;1.90;;;6.20;82.50;;;;;;4961416;28;20198;-83
2023/12/24 04:51:17;;;;;;;0.50;0.50;;;6.20;82.40;;;;;;4961065;28;20199;-83
2023/12/24 04:53:46;;;;;;;0.93;0.93;;;6.20;82.20;;;;;;4962179;28;20204;-86
2023/12/24 04:56:24;;;;;;;0.80;0.80;;;6.20;82.10;;;;;;4958939;28;20271;-86
2023/12/24 04:58:57;;;;;;;0.50;0.50;;;6.20;81.90;;;;;;4953556;28;20259;-82
2023/12/24 05:01:26;;;;;;;3.60;1.47;;;6.20;81.90;;;;;;4959643;28;20206;-82
2023/12/24 05:03:55;;;;;;;0.70;0.70;;;6.20;81.80;;;;;;4951834;28;20208;-86
2023/12/24 05:06:28;;;;;;;0.70;0.70;;;6.20;81.70;;;;;;4952872;28;20692;-84
2023/12/24 05:08:56;;;;;;;0.67;0.67;;;6.20;81.60;;;;;;4957825;28;20276;-82
2023/12/24 05:11:25;;;;;;;1.50;1.17;;;6.20;81.60;;;;;;4951080;28;20640;-81
2023/12/24 05:13:56;;;;;;;1.40;1.20;;;6.20;81.50;;;;;;4952203;28;20662;-80
2023/12/24 05:16:25;;;;;;;0.87;0.87;;;6.20;81.40;;;;;;4953017;28;20204;-83
2023/12/24 05:18:56;;;;;;;0.80;0.80;;;6.20;81.30;;;;;;4954009;28;20833;-81
2023/12/24 05:21:25;;;;;;;0.50;0.50;;;6.20;81.20;;;;;;4950367;28;20292;-82
2023/12/24 05:23:53;;;;;;;1.27;1.17;;;6.10;81.00;;;;;;4949209;28;20265;-82
2023/12/24 05:26:25;;;;;;;0.83;0.83;;;6.10;81.00;;;;;;4948837;28;20212;-84
2023/12/24 05:28:58;;;;;;;0.50;0.50;;;6.10;80.90;;;;;;4949175;28;20533;-83
2023/12/24 05:31:30;;;;;;;0.70;0.70;;;6.10;80.90;;;;;;4953501;28;20274;-84
2023/12/24 05:33:59;;;;;;;0.90;0.90;;;6.10;80.80;;;;;;4951134;28;20299;-83
2023/12/24 05:36:27;;;;;;;1.03;1.03;;;6.10;80.80;;;;;;4953991;28;20219;-84
2023/12/24 05:38:59;;;;;;;0.50;0.50;;;6.10;80.60;;;;;;4952021;28;20234;-84
2023/12/24 05:41:30;;;;;;;1.43;1.33;;;6.10;80.50;;;;;;4951375;28;20224;-83
2023/12/24 05:44:02;;;;;;;2.83;1.27;;;6.10;80.50;;;;;;4945036;28;20839;-85
2023/12/24 05:46:31;;;;;;;1.00;1.00;;;6.00;80.40;;;;;;4945423;28;20250;-86
2023/12/24 05:48:59;;;;;;;0.77;0.70;;;6.00;80.50;;;;;;4946988;28;20234;-84
2023/12/24 05:51:28;;;;;;;1.00;1.00;;;6.00;80.50;;;;;;4947564;28;20198;-83
2023/12/24 05:54:00;;;;;;;1.13;1.10;;;5.90;80.60;;;;;;4948742;28;20208;-82
2023/12/24 05:56:28;;;;;;;1.87;1.77;;;5.90;80.70;;;;;;4946166;28;20221;-85
2023/12/24 05:58:57;;;;;;;1.30;1.00;;;5.80;80.90;;;;;;4947660;28;20244;-85
2023/12/24 06:01:28;;;;;;;0.70;0.70;;;5.80;81.40;;;;;;4946038;28;20806;-86
2023/12/24 06:03:58;;;;;;;0.70;0.70;;;5.80;81.50;;;;;;4952169;28;20587;-86
2023/12/24 06:06:29;;;;;;;0.90;0.90;;;5.80;81.50;;;;;;4954924;28;20182;-86
2023/12/24 06:08:57;;;;;;;0.57;0.57;;;5.80;81.80;;;;;;4950531;28;20264;-83
2023/12/24 06:11:26;;;;;;;1.60;1.50;;;5.70;81.80;;;;;;4946780;28;20319;-82
2023/12/24 06:13:55;;;;;;;0.83;0.83;;;5.70;81.90;;;;;;4955356;28;20663;-83
2023/12/24 06:16:23;;;;;;;1.60;1.00;;;5.70;82.20;;;;;;4953914;28;20209;-84
2023/12/24 06:18:53;;;;;;;1.23;1.13;;;5.70;82.30;;;;;;4955307;28;20294;-84
2023/12/24 06:21:24;;;;;;;0.97;0.97;;;5.70;82.50;;;;;;4953443;28;20241;-85
2023/12/24 06:23:53;;;;;;;0.80;0.80;;;5.60;82.50;;;;;;4955557;28;20210;-85
2023/12/24 06:26:22;;;;;;;1.67;1.57;;;5.60;82.40;;;;;;4953825;28;20211;-83
2023/12/24 06:28:50;;;;;;;0.83;0.83;;;5.60;82.70;;;;;;4952429;28;22463;-84
2023/12/24 06:31:22;;;;;;;1.10;1.10;;;5.60;82.80;;;;;;4945385;28;20233;-82
2023/12/24 06:33:53;;;;;;;0.70;0.70;;;5.60;82.80;;;;;;4955306;28;20257;-84
2023/12/24 06:36:22;;;;;;;0.50;0.50;;;5.60;82.80;;;;;;4960166;28;20214;-85
2023/12/24 06:38:51;;;;;;;3.97;1.97;;;5.60;82.80;;;;;;4956264;28;20309;-83
2023/12/24 06:41:19;;;;;;;2.40;1.67;;;5.60;83.00;;;;;;4952030;28;20248;-81
2023/12/24 06:43:48;;;;;;;1.47;1.37;;;5.70;83.90;;;;;;4950426;28;20202;-85
2023/12/24 06:46:17;;;;;;;0.90;0.90;;;5.70;83.20;;;;;;4955166;28;20214;-83
2023/12/24 06:48:45;;;;;;;2.20;1.67;;;5.70;83.20;;;;;;4954600;28;20197;-84
2023/12/24 06:51:15;;;;;;;1.47;1.37;;;5.80;83.30;;;;;;4954155;28;20573;-82
2023/12/24 06:53:45;;;;;;;2.93;1.67;;;5.80;83.30;;;;;;4950877;28;20203;-82
2023/12/24 06:56:14;;;;;;;1.50;1.40;;;5.80;83.30;;;;;;4950577;28;20256;-82
2023/12/24 06:58:46;;;;;;;2.83;2.13;;;5.90;83.30;;;;;;4955546;28;20203;-81
2023/12/24 07:01:15;;;;;;;1.50;1.40;;;6.00;83.30;;;;;;4953556;28;20262;-81
2023/12/24 07:03:45;;;;;;;2.33;1.37;;;6.00;83.10;;;;;;4955146;28;20208;-83
2023/12/24 07:06:16;;;;;;;1.00;1.00;;;6.10;83.10;;;;;;4947600;28;20288;-81
2023/12/24 07:08:44;;;;;;;1.00;0.93;;;6.20;83.00;;;;;;4947584;28;20292;-82
2023/12/24 07:11:14;;;;;;;0.60;0.60;;;6.30;83.00;;;;;;4951428;28;20203;-81
2023/12/24 07:13:42;;;;;;;1.20;1.10;;;6.40;82.90;;;;;;4951012;28;20196;-80
2023/12/24 07:16:12;;;;;;;0.60;0.60;;;6.50;82.90;;;;;;4945463;28;20229;-83
2023/12/24 07:18:41;;;;;;;2.13;1.73;;;6.60;82.80;;;;;;4955078;28;20206;-83
2023/12/24 07:21:10;;;;;;;1.90;1.80;;;6.70;82.80;;;;;;4952729;28;20740;-83
2023/12/24 07:23:41;;;;;;;2.03;1.87;;;6.70;82.70;;;;;;4956170;28;20217;-82
2023/12/24 07:26:11;;;;;;;1.40;1.30;;;6.80;82.70;;;;;;4952832;28;20210;-83
2023/12/24 07:28:39;;;;;;;1.53;1.43;;;6.80;82.60;;;;;;4953074;28;20209;-83
2023/12/24 07:31:08;;;;;;;1.70;1.60;;;6.90;82.60;;;;;;4953457;28;20590;-84
2023/12/24 07:33:37;;;;;;;0.60;0.60;;;6.80;82.10;;;;;;4957057;28;20285;-85
2023/12/24 07:36:06;;;;;;;0.80;0.80;;;6.90;82.00;;;;;;4950436;28;20210;-85
2023/12/24 07:38:35;;;;;;;3.23;0.77;;;6.90;82.00;;;;;;4947126;28;20487;-83
2023/12/24 07:41:05;;;;;;;1.03;0.77;;;7.00;82.00;;;;;;4944985;28;20344;-83
2023/12/24 07:43:33;;;;;;;2.53;1.50;;;7.00;81.90;;;;;;4947721;28;20749;-83
2023/12/24 07:46:02;;;;;;;1.03;1.03;;;7.00;81.70;;;;;;4949665;28;20649;-85
2023/12/24 07:48:30;;;;;;;3.27;2.67;;;7.10;81.60;;;;;;4949301;28;20254;-82
2023/12/24 07:50:59;;;;;;;2.37;1.77;;;7.20;81.60;;;;;;4951680;28;20220;-83
2023/12/24 07:53:28;;;;;;;0.70;0.70;;;7.20;81.60;;;;;;4948544;28;20562;-82
2023/12/24 07:55:56;;;;;;;1.03;1.03;;;7.30;81.60;;;;;;4953114;28;20202;-84
2023/12/24 07:58:26;;;;;;;0.93;0.93;;;7.30;81.30;;;;;;4954711;28;20225;-86
2023/12/24 08:00:57;;;;;;;1.13;1.13;;;7.40;80.90;;;;;;4940729;28;20233;-85
2023/12/24 08:03:28;;;;;;;0.50;0.50;;;7.40;80.80;;;;;;4950564;28;20321;-86
2023/12/24 08:05:57;;;;;;;0.63;0.63;;;7.40;80.50;;;;;;4950504;28;20202;-83
2023/12/24 08:08:26;;;;;;;0.43;0.43;;;7.50;80.50;;;;;;4953437;28;20199;-82
2023/12/24 08:10:54;;;;;;;1.20;1.10;;;7.50;80.50;;;;;;4954077;28;20206;-84
2023/12/24 08:13:28;;;;;;;1.10;0.83;;;7.60;80.30;;;;;;4957592;28;20206;-82
2023/12/24 08:15:57;;;;;;;0.70;0.70;;;7.60;79.50;;;;;;4955703;28;20282;-83
2023/12/24 08:18:26;;;;;;;0.60;0.60;;;7.60;79.50;;;;;;4966043;28;20253;-83
2023/12/24 08:20:55;;;;;;;0.50;0.50;;;7.60;79.60;;;;;;4955065;28;20230;-83
2023/12/24 08:23:23;;;;;;;0.83;0.83;;;7.60;79.40;;;;;;4950800;28;20199;-82
2023/12/24 08:25:52;;;;;;;0.70;0.70;;;7.60;79.60;;;;;;4952952;28;20242;-83
2023/12/24 08:28:21;;;;;;;1.37;1.27;;;7.60;79.80;;;;;;4953887;28;20662;-82
2023/12/24 08:30:51;;;;;;;1.33;1.23;;;7.60;79.50;;;;;;4952552;28;20202;-81
2023/12/24 08:33:20;;;;;;;0.80;0.70;;;7.60;79.60;;;;;;4952719;28;20230;-82
2023/12/24 08:35:48;;;;;;;0.80;0.80;;;7.70;79.90;;;;;;4954096;28;20224;-81
2023/12/24 08:38:17;;;;;;;0.50;0.50;;;7.60;79.60;;;;;;4951486;28;20201;-88
2023/12/24 08:40:46;;;;;;;0.80;0.80;;;7.60;79.70;;;;;;4959338;28;20745;-88
2023/12/24 08:43:14;;;;;;;0.97;0.97;;;7.70;80.00;;;;;;4957461;28;20203;-84
2023/12/24 08:45:45;;;;;;;2.00;1.33;;;7.70;80.00;;;;;;4954769;28;20190;-84
2023/12/24 08:48:16;;;;;;;1.80;1.33;;;7.70;80.00;;;;;;4961892;28;20452;-85
2023/12/24 08:50:45;;;;;;;2.90;1.87;;;7.70;80.20;;;;;;4963729;28;20621;-84
2023/12/24 08:53:13;;;;;;;1.13;1.03;;;7.70;80.50;;;;;;4960266;28;20202;-85
2023/12/24 08:55:42;;;;;;;0.40;0.40;;;7.80;80.50;;;;;;4956337;28;20226;-85
2023/12/24 08:58:11;;;;;;;3.40;1.80;;;7.90;80.60;;;;;;4953702;28;20318;-83
2023/12/24 09:00:39;;;;;;;0.50;0.50;;;7.90;80.70;;;;;;4951913;28;20234;-85
2023/12/24 09:03:08;;;;;;;1.43;1.27;;;8.00;80.90;;;;;;4952251;28;20258;-84
2023/12/24 09:05:38;;;;;;;1.27;1.10;;;8.00;80.80;;;;;;4955379;28;20213;-83
2023/12/24 09:08:07;;;;;;;2.13;1.27;;;8.10;80.20;;;;;;4954265;28;20215;-85
2023/12/24 09:10:39;;;;;;;2.00;1.30;;;8.20;80.30;;;;;;4954211;28;20264;-84
2023/12/24 09:13:07;;;;;;;0.87;0.87;;;8.20;80.00;;;;;;4952542;28;20209;-83
2023/12/24 09:15:36;;;;;;;1.67;1.23;;;8.20;80.00;;;;;;4954723;28;20240;-85
2023/12/24 09:18:05;;;;;;;0.77;0.77;;;8.30;80.00;;;;;;4953372;28;20671;-85
2023/12/24 09:20:34;;;;;;;1.57;1.17;;;8.40;79.80;;;;;;4953436;28;20262;-84
2023/12/24 09:23:04;;;;;;;0.87;0.87;;;8.40;79.80;;;;;;4957519;28;20205;-83
2023/12/24 09:25:33;;;;;;;1.47;1.37;;;8.40;79.80;;;;;;4952571;28;20209;-83
2023/12/24 09:28:01;;;;;;;1.17;0.90;;;8.40;80.70;;;;;;4953134;28;20217;-82
2023/12/24 09:30:30;;;;;;;1.20;1.10;;;8.40;80.00;;;;;;4954481;28;20281;-82
2023/12/24 09:33:02;;;;;;;0.50;0.50;;;8.50;80.40;;;;;;4954242;28;20237;-83
2023/12/24 09:35:31;;;;;;;1.80;1.70;;;8.60;80.50;;;;;;4954261;28;20224;-83
2023/12/24 09:38:01;;;;;;;4.37;1.77;;;8.60;80.50;;;;;;4955337;28;20211;-83
2023/12/24 09:40:31;;;;;;;2.77;2.00;;;8.70;80.70;;;;;;4953624;28;20284;-83
2023/12/24 09:43:04;;;;;;;1.90;1.37;;;8.80;80.90;;;;;;4950506;28;20218;-87
2023/12/24 09:45:34;;;;;;;0.97;0.97;;;8.80;81.30;;;;;;4952364;28;20214;-85
2023/12/24 09:48:03;;;;;;;0.60;0.60;;;8.90;81.70;;;;;;4950043;28;20209;-84
2023/12/24 09:50:32;;;;;;;2.20;1.20;;;8.90;81.80;;;;;;4947946;28;20206;-84
2023/12/24 09:53:02;;;;;;;1.70;1.60;;;9.00;82.10;;;;;;4951545;28;20194;-82
2023/12/24 09:55:32;;;;;;;0.93;0.60;;;9.10;82.20;;;;;;4947341;28;20321;-86
2023/12/24 09:58:01;;;;;;;1.53;1.43;;;9.20;82.20;;;;;;4950274;28;20686;-84
2023/12/24 10:00:30;;;;;;;1.10;1.07;;;9.30;83.20;;;;;;4949626;28;20619;-86
2023/12/24 10:03:03;;;;;;;1.03;1.03;;;9.40;82.40;;;;;;4960583;28;20500;-84
2023/12/24 10:05:32;;;;;;;0.60;0.53;;;9.50;82.60;;;;;;4956953;28;20236;-85
2023/12/24 10:08:02;;;;;;;0.80;0.80;;;9.60;82.70;;;;;;4950523;28;20213;-84
2023/12/24 10:10:33;;;;;;;1.50;1.00;;;9.70;82.60;;;;;;4951153;28;20213;-82
2023/12/24 10:13:06;;;;;;;1.60;1.03;;;9.80;82.60;;;;;;4955853;28;20210;-85
2023/12/24 10:15:38;;;;;;;1.13;0.73;;;9.90;82.70;;;;;;4951673;28;20210;-85
2023/12/24 10:18:17;;;;;;;1.07;0.97;;;10.10;82.70;;;;;;4954208;28;20662;-84
2023/12/24 10:20:49;;;;;;;1.80;1.60;;;10.20;82.60;;;;;;4956956;28;20203;-85
2023/12/24 10:23:21;;;;;;;0.70;0.60;;;10.40;82.60;;;;;;4955708;28;20233;-84
2023/12/24 10:26:02;;;;;;;1.57;1.30;;;10.50;82.30;;;;;;4953060;28;20190;-84
2023/12/24 10:28:32;;;;;;;0.67;0.67;;;10.50;82.30;;;;;;4955042;28;20205;-84
2023/12/24 10:31:08;;;;;;;2.33;1.27;;;10.60;82.20;;;;;;4956633;28;20272;-85
2023/12/24 10:33:38;;;;;;;1.13;0.93;;;10.80;82.30;;;;;;4956963;28;20260;-83
2023/12/24 10:36:07;;;;;;;4.73;2.80;;;10.80;81.90;;;;;;4949963;28;20217;-84
2023/12/24 10:38:38;;;;;;;0.67;0.67;;;10.90;81.80;;;;;;4948493;28;20714;-83
2023/12/24 10:41:08;;;;;;;5.27;1.03;;;11.00;81.70;;;;;;4947782;28;20195;-84
2023/12/24 10:43:37;;;;;;;0.67;0.67;;;11.20;81.70;;;;;;4948264;28;20281;-84
2023/12/24 10:46:06;;;;;;;0.40;0.40;;;11.30;81.60;;;;;;4948588;28;20202;-84
2023/12/24 10:48:34;;;;;;;1.10;1.07;;;11.50;81.50;;;;;;4961594;28;20206;-83
2023/12/24 10:51:03;;;;;;;0.40;0.40;;;11.70;81.40;;;;;;4957113;28;20209;-82
2023/12/24 10:53:32;;;;;;;0.30;0.30;;;11.70;80.10;;;;;;4953227;28;20564;-86
2023/12/24 10:56:04;;;;;;;0.50;0.50;;;11.80;79.90;;;;;;4963487;28;20183;-86
2023/12/24 10:58:43;;;;;;;1.20;1.13;;;11.90;79.60;;;;;;4957031;28;20551;-83
2023/12/24 11:01:16;;;;;;;0.30;0.30;;;12.00;79.20;;;;;;4953563;28;20242;-84
2023/12/24 11:03:47;;;;;;;1.47;1.37;;;12.10;78.70;;;;;;4958121;28;20226;-84
2023/12/24 11:06:47;;;;;;;1.40;0.63;;;12.20;78.20;;;;;;4955988;28;20293;-83
2023/12/24 11:09:48;;;;;;;2.73;0.60;;;12.40;77.80;;;;;;4948449;28;20665;-83
2023/12/24 11:12:32;;;;;;;0.67;0.67;;;12.50;76.70;;;;;;4914433;29;20204;-82
2023/12/24 11:15:04;;;;;;;0.40;0.40;;;12.60;76.30;;;;;;4920222;29;20279;-84
2023/12/24 11:17:50;;;;;;;0.30;0.30;;;12.80;76.90;;;;;;4918448;29;20616;-86
2023/12/24 11:20:39;;;;;;;1.90;0.93;;;12.80;76.20;;;;;;4914235;29;20275;-84
2023/12/24 11:23:16;;;;;;;0.93;0.73;;;12.90;76.80;;;;;;4907331;29;20251;-83
2023/12/24 11:25:46;;;;;;;2.33;1.63;;;13.10;76.90;;;;;;4910266;29;20258;-82
2023/12/24 11:28:36;;;;;;;0.73;0.70;;;13.10;76.10;;;;;;4909209;29;20210;-82
2023/12/24 11:31:08;;;;;;;0.80;0.80;;;13.20;76.40;;;;;;4910276;29;20251;-83
2023/12/24 11:33:55;;;;;;;0.43;0.33;;;13.20;75.50;;;;;;4911313;29;20215;-84
2023/12/24 11:36:26;;;;;;;0.90;0.70;;;13.30;75.90;;;;;;4910069;29;20210;-82
2023/12/24 11:38:57;;;;;;;1.40;1.00;;;13.30;75.60;;;;;;4913320;29;20572;-84
2023/12/24 11:41:28;;;;;;;0.30;0.30;;;13.40;75.70;;;;;;4920541;29;20675;-85
2023/12/24 11:43:59;;;;;;;0.60;0.60;;;13.50;75.30;;;;;;4947201;28;20230;-83
2023/12/24 11:46:31;;;;;;;1.00;0.90;;;13.50;75.20;;;;;;4953056;28;20649;-85
2023/12/24 11:49:06;;;;;;;0.63;0.63;;;13.60;75.50;;;;;;4946571;28;20202;-83
2023/12/24 11:51:38;;;;;;;0.50;0.50;;;13.60;75.40;;;;;;4951433;28;20198;-85
2023/12/24 11:54:08;;;;;;;0.60;0.60;;;13.70;75.20;;;;;;4947806;28;20210;-84
2023/12/24 11:56:37;;;;;;;0.50;0.50;;;13.80;75.40;;;;;;4958579;28;20238;-83
2023/12/24 11:59:06;;;;;;;0.77;0.60;;;13.80;75.50;;;;;;4948938;28;20214;-82
2023/12/24 12:01:36;;;;;;;0.67;0.50;;;13.90;75.00;;;;;;4948587;28;20241;-82
2023/12/24 12:04:08;;;;;;;0.50;0.50;;;13.90;75.10;;;;;;4946476;28;21255;-84
2023/12/24 12:06:37;;;;;;;0.40;0.40;;;13.90;74.60;;;;;;4945328;28;20659;-82
2023/12/24 12:09:10;;;;;;;1.50;0.90;;;13.90;74.20;;;;;;4949181;28;20250;-82
2023/12/24 12:11:41;;;;;;;6.27;1.33;;;13.90;74.40;;;;;;4951925;28;20718;-83
2023/12/24 12:14:10;;;;;;;1.13;1.13;;;13.90;74.40;;;;;;4950316;28;20202;-82
2023/12/24 12:16:40;;;;;;;0.30;0.30;;;14.00;74.40;;;;;;4947852;28;20776;-83
2023/12/24 12:19:08;;;;;;;0.40;0.40;;;14.00;73.60;;;;;;4953684;28;20213;-82
2023/12/24 12:21:37;;;;;;;0.30;0.30;;;13.90;73.60;;;;;;4956963;28;20215;-84
2023/12/24 12:24:06;;;;;;;0.20;0.20;;;13.90;73.90;;;;;;4947329;28;21197;-82
2023/12/24 12:26:37;;;;;;;1.50;0.63;;;13.80;73.80;;;;;;4949984;28;20209;-82
2023/12/24 12:29:05;;;;;;;0.43;0.43;;;13.80;74.00;;;;;;4952313;28;20209;-83
2023/12/24 12:31:34;;;;;;;1.20;0.70;;;13.80;74.20;;;;;;4947493;28;20273;-82
2023/12/24 12:34:04;;;;;;;0.37;0.37;;;13.70;74.30;;;;;;4952988;28;20289;-83
2023/12/24 12:36:35;;;;;;;0.40;0.40;;;13.70;74.50;;;;;;4958337;28;20692;-84
2023/12/24 12:39:05;;;;;;;0.30;0.30;;;13.80;74.70;;;;;;4952458;28;20202;-81
2023/12/24 12:41:34;;;;;;;0.40;0.40;;;13.80;74.70;;;;;;4959803;28;20211;-82
2023/12/24 12:44:03;;;;;;;0.60;0.60;;;13.80;74.70;;;;;;4953104;28;20233;-82
2023/12/24 12:46:32;;;;;;;0.30;0.30;;;13.80;74.30;;;;;;4955625;28;20206;-81
2023/12/24 12:49:00;;;;;;;0.30;0.30;;;13.80;74.50;;;;;;4951418;28;20203;-82
2023/12/24 12:51:31;;;;;;;0.57;0.57;;;13.90;74.50;;;;;;4966667;28;20210;-84
2023/12/24 12:54:06;;;;;;;1.67;1.37;;;13.90;74.70;;;;;;4953911;28;20213;-83
2023/12/24 12:56:43;;;;;;;3.23;2.80;;;14.00;74.70;;;;;;4953725;28;20229;-83
2023/12/24 12:59:22;;;;;;;1.40;1.33;;;14.00;74.70;;;;;;4957064;28;20293;-81
2023/12/24 13:01:52;;;;;;;0.83;0.43;;;14.00;75.10;;;;;;4950362;28;20233;-84
2023/12/24 13:04:24;;;;;;;0.60;0.60;;;14.20;75.10;;;;;;4954184;28;20623;-84
2023/12/24 13:06:58;;;;;;;0.63;0.63;;;14.30;75.50;;;;;;4953563;28;20213;-83
2023/12/24 13:09:30;;;;;;;0.20;0.20;;;14.60;75.80;;;;;;4954163;28;20281;-83
2023/12/24 13:12:05;;;;;;;0.30;0.30;;;14.90;74.40;;;;;;4944423;28;20289;-85
2023/12/24 13:14:34;;;;;;;2.70;0.80;;;15.10;73.60;;;;;;4953347;28;20198;-84
2023/12/24 13:17:07;;;;;;;0.20;0.20;;;15.20;71.80;;;;;;4956664;28;20204;-84